sensor_id;sensor_type;location;lat;lon;timestamp;P1;durP1;ratioP1;P2;durP2;ratioP2
8594;SDS011;4335;48.860;9.198;2023-03-04T00:01:03;49.97;;;30.20;;
8594;SDS011;4335;48.860;9.198;2023-03-04T00:03:50;33.50;;;21.70;;
8594;SDS011;4335;48.860;9.198;2023-03-04T00:06:21;34.00;;;19.90;;
8594;SDS011;4335;48.860;9.198;2023-03-04T00:08:54;24.53;;;17.73;;
8594;SDS011;4335;48.860;9.198;2023-03-04T00:11:21;32.03;;;19.20;;
8594;SDS011;4335;48.860;9.198;2023-03-04T00:13:49;28.17;;;18.80;;
8594;SDS011;4335;48.860;9.198;2023-03-04T00:16:18;30.17;;;17.93;;
8594;SDS011;4335;48.860;9.198;2023-03-04T00:18:46;28.50;;;19.20;;
8594;SDS011;4335;48.860;9.198;2023-03-04T00:21:13;28.30;;;16.93;;
8594;SDS011;4335;48.860;9.198;2023-03-04T00:23:40;28.43;;;17.97;;
8594;SDS011;4335;48.860;9.198;2023-03-04T00:26:08;31.00;;;18.83;;
8594;SDS011;4335;48.860;9.198;2023-03-04T00:28:35;27.57;;;17.37;;
8594;SDS011;4335;48.860;9.198;2023-03-04T00:31:04;28.93;;;17.23;;
8594;SDS011;4335;48.860;9.198;2023-03-04T00:33:33;29.40;;;17.63;;
8594;SDS011;4335;48.860;9.198;2023-03-04T00:36:00;24.60;;;16.90;;
8594;SDS011;4335;48.860;9.198;2023-03-04T00:38:28;30.13;;;18.80;;
8594;SDS011;4335;48.860;9.198;2023-03-04T00:40:55;29.13;;;17.13;;
8594;SDS011;4335;48.860;9.198;2023-03-04T00:43:23;26.90;;;17.97;;
8594;SDS011;4335;48.860;9.198;2023-03-04T00:45:50;29.33;;;18.43;;
8594;SDS011;4335;48.860;9.198;2023-03-04T00:48:21;31.17;;;18.10;;
8594;SDS011;4335;48.860;9.198;2023-03-04T00:50:55;29.97;;;18.63;;
8594;SDS011;4335;48.860;9.198;2023-03-04T00:53:25;30.60;;;17.97;;
8594;SDS011;4335;48.860;9.198;2023-03-04T00:55:53;29.60;;;18.00;;
8594;SDS011;4335;48.860;9.198;2023-03-04T00:58:23;27.53;;;17.20;;
8594;SDS011;4335;48.860;9.198;2023-03-04T01:00:51;28.60;;;17.93;;
8594;SDS011;4335;48.860;9.198;2023-03-04T01:03:27;29.53;;;18.40;;
8594;SDS011;4335;48.860;9.198;2023-03-04T01:05:58;32.27;;;18.20;;
8594;SDS011;4335;48.860;9.198;2023-03-04T01:08:26;30.30;;;17.63;;
8594;SDS011;4335;48.860;9.198;2023-03-04T01:10:56;27.93;;;18.53;;
8594;SDS011;4335;48.860;9.198;2023-03-04T01:13:26;26.93;;;18.87;;
8594;SDS011;4335;48.860;9.198;2023-03-04T01:15:54;30.23;;;19.37;;
8594;SDS011;4335;48.860;9.198;2023-03-04T01:18:24;26.97;;;16.63;;
8594;SDS011;4335;48.860;9.198;2023-03-04T01:20:54;25.00;;;16.63;;
8594;SDS011;4335;48.860;9.198;2023-03-04T01:23:31;25.80;;;16.20;;
8594;SDS011;4335;48.860;9.198;2023-03-04T01:25:59;26.93;;;16.80;;
8594;SDS011;4335;48.860;9.198;2023-03-04T01:28:29;26.87;;;17.70;;
8594;SDS011;4335;48.860;9.198;2023-03-04T01:30:59;25.23;;;16.30;;
8594;SDS011;4335;48.860;9.198;2023-03-04T01:33:29;27.53;;;17.33;;
8594;SDS011;4335;48.860;9.198;2023-03-04T01:35:59;24.33;;;16.27;;
8594;SDS011;4335;48.860;9.198;2023-03-04T01:38:27;26.57;;;15.70;;
8594;SDS011;4335;48.860;9.198;2023-03-04T01:40:56;23.10;;;15.03;;
8594;SDS011;4335;48.860;9.198;2023-03-04T01:43:27;25.60;;;16.27;;
8594;SDS011;4335;48.860;9.198;2023-03-04T01:45:56;25.40;;;15.57;;
8594;SDS011;4335;48.860;9.198;2023-03-04T01:48:24;25.10;;;14.40;;
8594;SDS011;4335;48.860;9.198;2023-03-04T01:50:54;23.27;;;13.77;;
8594;SDS011;4335;48.860;9.198;2023-03-04T01:53:30;22.70;;;14.07;;
8594;SDS011;4335;48.860;9.198;2023-03-04T01:56:01;23.97;;;14.37;;
8594;SDS011;4335;48.860;9.198;2023-03-04T01:58:39;21.27;;;14.23;;
8594;SDS011;4335;48.860;9.198;2023-03-04T02:01:10;20.43;;;13.47;;
8594;SDS011;4335;48.860;9.198;2023-03-04T02:03:41;21.70;;;12.70;;
8594;SDS011;4335;48.860;9.198;2023-03-04T02:06:08;19.90;;;12.83;;
8594;SDS011;4335;48.860;9.198;2023-03-04T02:08:35;19.27;;;13.00;;
8594;SDS011;4335;48.860;9.198;2023-03-04T02:11:07;21.07;;;13.53;;
8594;SDS011;4335;48.860;9.198;2023-03-04T02:13:38;22.77;;;13.77;;
8594;SDS011;4335;48.860;9.198;2023-03-04T02:16:05;20.87;;;14.07;;
8594;SDS011;4335;48.860;9.198;2023-03-04T02:18:33;22.83;;;13.50;;
8594;SDS011;4335;48.860;9.198;2023-03-04T02:21:02;20.77;;;13.00;;
8594;SDS011;4335;48.860;9.198;2023-03-04T02:23:49;18.87;;;12.57;;
8594;SDS011;4335;48.860;9.198;2023-03-04T02:26:27;18.27;;;12.63;;
8594;SDS011;4335;48.860;9.198;2023-03-04T02:28:57;19.00;;;12.80;;
8594;SDS011;4335;48.860;9.198;2023-03-04T02:31:26;20.07;;;13.10;;
8594;SDS011;4335;48.860;9.198;2023-03-04T02:33:57;18.10;;;12.93;;
8594;SDS011;4335;48.860;9.198;2023-03-04T02:36:26;21.90;;;13.77;;
8594;SDS011;4335;48.860;9.198;2023-03-04T02:38:55;22.87;;;13.73;;
8594;SDS011;4335;48.860;9.198;2023-03-04T02:41:28;21.40;;;13.03;;
8594;SDS011;4335;48.860;9.198;2023-03-04T02:43:59;18.53;;;12.53;;
8594;SDS011;4335;48.860;9.198;2023-03-04T02:46:40;20.70;;;12.80;;
8594;SDS011;4335;48.860;9.198;2023-03-04T02:49:10;21.97;;;14.60;;
8594;SDS011;4335;48.860;9.198;2023-03-04T02:51:38;19.33;;;12.80;;
8594;SDS011;4335;48.860;9.198;2023-03-04T02:54:13;20.33;;;12.63;;
8594;SDS011;4335;48.860;9.198;2023-03-04T02:56:45;21.33;;;12.83;;
8594;SDS011;4335;48.860;9.198;2023-03-04T02:59:12;19.93;;;13.27;;
8594;SDS011;4335;48.860;9.198;2023-03-04T03:01:40;18.43;;;12.80;;
8594;SDS011;4335;48.860;9.198;2023-03-04T03:04:08;24.43;;;13.63;;
8594;SDS011;4335;48.860;9.198;2023-03-04T03:06:35;20.07;;;12.80;;
8594;SDS011;4335;48.860;9.198;2023-03-04T03:09:03;22.07;;;13.93;;
8594;SDS011;4335;48.860;9.198;2023-03-04T03:11:37;20.73;;;13.07;;
8594;SDS011;4335;48.860;9.198;2023-03-04T03:14:05;22.30;;;13.63;;
8594;SDS011;4335;48.860;9.198;2023-03-04T03:16:39;17.90;;;12.23;;
8594;SDS011;4335;48.860;9.198;2023-03-04T03:19:07;21.17;;;13.70;;
8594;SDS011;4335;48.860;9.198;2023-03-04T03:21:34;22.27;;;13.30;;
8594;SDS011;4335;48.860;9.198;2023-03-04T03:24:08;22.20;;;13.60;;
8594;SDS011;4335;48.860;9.198;2023-03-04T03:26:38;22.23;;;13.67;;
8594;SDS011;4335;48.860;9.198;2023-03-04T03:29:10;22.53;;;13.57;;
8594;SDS011;4335;48.860;9.198;2023-03-04T03:31:40;22.90;;;12.97;;
8594;SDS011;4335;48.860;9.198;2023-03-04T03:34:08;21.83;;;13.63;;
8594;SDS011;4335;48.860;9.198;2023-03-04T03:36:43;22.80;;;13.70;;
8594;SDS011;4335;48.860;9.198;2023-03-04T03:39:10;22.50;;;13.17;;
8594;SDS011;4335;48.860;9.198;2023-03-04T03:41:39;23.40;;;14.60;;
8594;SDS011;4335;48.860;9.198;2023-03-04T03:44:13;21.60;;;13.73;;
8594;SDS011;4335;48.860;9.198;2023-03-04T03:46:41;20.60;;;14.03;;
8594;SDS011;4335;48.860;9.198;2023-03-04T03:49:08;23.10;;;13.50;;
8594;SDS011;4335;48.860;9.198;2023-03-04T03:51:36;22.83;;;14.80;;
8594;SDS011;4335;48.860;9.198;2023-03-04T03:54:03;23.73;;;13.43;;
8594;SDS011;4335;48.860;9.198;2023-03-04T03:58:58;23.00;;;13.83;;
8594;SDS011;4335;48.860;9.198;2023-03-04T04:01:27;22.47;;;13.83;;
8594;SDS011;4335;48.860;9.198;2023-03-04T04:03:54;20.60;;;13.70;;
8594;SDS011;4335;48.860;9.198;2023-03-04T04:06:22;22.03;;;14.40;;
8594;SDS011;4335;48.860;9.198;2023-03-04T04:08:51;22.33;;;14.07;;
8594;SDS011;4335;48.860;9.198;2023-03-04T04:11:18;26.07;;;15.97;;
8594;SDS011;4335;48.860;9.198;2023-03-04T04:13:45;25.33;;;15.07;;
8594;SDS011;4335;48.860;9.198;2023-03-04T04:16:13;23.07;;;14.03;;
8594;SDS011;4335;48.860;9.198;2023-03-04T04:18:42;20.97;;;12.70;;
8594;SDS011;4335;48.860;9.198;2023-03-04T04:21:09;26.23;;;15.50;;
8594;SDS011;4335;48.860;9.198;2023-03-04T04:23:42;25.37;;;15.00;;
8594;SDS011;4335;48.860;9.198;2023-03-04T04:26:10;24.10;;;13.93;;
8594;SDS011;4335;48.860;9.198;2023-03-04T04:28:40;23.50;;;13.70;;
8594;SDS011;4335;48.860;9.198;2023-03-04T04:31:08;23.43;;;14.77;;
8594;SDS011;4335;48.860;9.198;2023-03-04T04:33:35;26.57;;;15.53;;
8594;SDS011;4335;48.860;9.198;2023-03-04T04:36:09;23.57;;;14.50;;
8594;SDS011;4335;48.860;9.198;2023-03-04T04:38:43;22.07;;;14.00;;
8594;SDS011;4335;48.860;9.198;2023-03-04T04:41:14;25.67;;;14.57;;
8594;SDS011;4335;48.860;9.198;2023-03-04T04:43:45;25.17;;;15.13;;
8594;SDS011;4335;48.860;9.198;2023-03-04T04:46:13;28.43;;;15.30;;
8594;SDS011;4335;48.860;9.198;2023-03-04T04:48:40;23.73;;;14.57;;
8594;SDS011;4335;48.860;9.198;2023-03-04T04:51:09;24.33;;;14.73;;
8594;SDS011;4335;48.860;9.198;2023-03-04T04:53:37;25.23;;;14.90;;
8594;SDS011;4335;48.860;9.198;2023-03-04T04:56:08;28.97;;;15.10;;
8594;SDS011;4335;48.860;9.198;2023-03-04T04:58:38;24.70;;;15.40;;
8594;SDS011;4335;48.860;9.198;2023-03-04T05:01:05;28.80;;;15.30;;
8594;SDS011;4335;48.860;9.198;2023-03-04T05:03:33;27.63;;;15.07;;
8594;SDS011;4335;48.860;9.198;2023-03-04T05:06:06;25.33;;;15.97;;
8594;SDS011;4335;48.860;9.198;2023-03-04T05:08:36;24.40;;;15.43;;
8594;SDS011;4335;48.860;9.198;2023-03-04T05:11:13;24.50;;;14.70;;
8594;SDS011;4335;48.860;9.198;2023-03-04T05:13:40;27.43;;;15.23;;
8594;SDS011;4335;48.860;9.198;2023-03-04T05:16:14;29.60;;;16.83;;
8594;SDS011;4335;48.860;9.198;2023-03-04T05:18:42;25.33;;;15.60;;
8594;SDS011;4335;48.860;9.198;2023-03-04T05:21:13;28.70;;;15.77;;
8594;SDS011;4335;48.860;9.198;2023-03-04T05:23:42;26.37;;;15.37;;
8594;SDS011;4335;48.860;9.198;2023-03-04T05:26:10;27.57;;;15.03;;
8594;SDS011;4335;48.860;9.198;2023-03-04T05:28:40;25.50;;;15.67;;
8594;SDS011;4335;48.860;9.198;2023-03-04T05:31:11;26.97;;;15.73;;
8594;SDS011;4335;48.860;9.198;2023-03-04T05:33:42;27.80;;;15.27;;
8594;SDS011;4335;48.860;9.198;2023-03-04T05:36:09;28.27;;;16.43;;
8594;SDS011;4335;48.860;9.198;2023-03-04T05:38:44;29.43;;;15.93;;
8594;SDS011;4335;48.860;9.198;2023-03-04T05:41:11;27.47;;;15.63;;
8594;SDS011;4335;48.860;9.198;2023-03-04T05:43:44;26.30;;;14.37;;
8594;SDS011;4335;48.860;9.198;2023-03-04T05:46:12;29.80;;;16.03;;
8594;SDS011;4335;48.860;9.198;2023-03-04T05:48:50;26.63;;;15.43;;
8594;SDS011;4335;48.860;9.198;2023-03-04T05:51:17;28.70;;;16.17;;
8594;SDS011;4335;48.860;9.198;2023-03-04T05:53:49;26.30;;;15.47;;
8594;SDS011;4335;48.860;9.198;2023-03-04T05:56:17;29.50;;;15.77;;
8594;SDS011;4335;48.860;9.198;2023-03-04T05:58:45;28.27;;;16.80;;
8594;SDS011;4335;48.860;9.198;2023-03-04T06:01:12;27.37;;;15.80;;
8594;SDS011;4335;48.860;9.198;2023-03-04T06:03:40;30.40;;;18.07;;
8594;SDS011;4335;48.860;9.198;2023-03-04T06:06:12;28.53;;;17.27;;
8594;SDS011;4335;48.860;9.198;2023-03-04T06:08:40;32.00;;;15.80;;
8594;SDS011;4335;48.860;9.198;2023-03-04T06:11:09;34.30;;;17.37;;
8594;SDS011;4335;48.860;9.198;2023-03-04T06:13:36;31.13;;;17.77;;
8594;SDS011;4335;48.860;9.198;2023-03-04T06:16:04;26.23;;;16.37;;
8594;SDS011;4335;48.860;9.198;2023-03-04T06:18:32;29.60;;;18.23;;
8594;SDS011;4335;48.860;9.198;2023-03-04T06:21:00;29.00;;;17.43;;
8594;SDS011;4335;48.860;9.198;2023-03-04T06:23:28;28.33;;;17.50;;
8594;SDS011;4335;48.860;9.198;2023-03-04T06:25:57;27.30;;;16.47;;
8594;SDS011;4335;48.860;9.198;2023-03-04T06:28:35;28.87;;;18.07;;
8594;SDS011;4335;48.860;9.198;2023-03-04T06:31:03;27.30;;;15.63;;
8594;SDS011;4335;48.860;9.198;2023-03-04T06:33:30;29.57;;;16.50;;
8594;SDS011;4335;48.860;9.198;2023-03-04T06:35:58;30.07;;;17.40;;
8594;SDS011;4335;48.860;9.198;2023-03-04T06:38:25;31.93;;;17.33;;
8594;SDS011;4335;48.860;9.198;2023-03-04T06:40:53;29.70;;;17.23;;
8594;SDS011;4335;48.860;9.198;2023-03-04T06:43:20;27.10;;;15.80;;
8594;SDS011;4335;48.860;9.198;2023-03-04T06:45:52;30.47;;;16.90;;
8594;SDS011;4335;48.860;9.198;2023-03-04T06:48:19;30.07;;;15.97;;
8594;SDS011;4335;48.860;9.198;2023-03-04T06:50:47;30.10;;;17.63;;
8594;SDS011;4335;48.860;9.198;2023-03-04T06:53:20;27.97;;;16.43;;
8594;SDS011;4335;48.860;9.198;2023-03-04T06:55:54;29.70;;;17.53;;
8594;SDS011;4335;48.860;9.198;2023-03-04T06:58:21;27.50;;;17.03;;
8594;SDS011;4335;48.860;9.198;2023-03-04T07:00:48;31.03;;;17.37;;
8594;SDS011;4335;48.860;9.198;2023-03-04T07:03:17;29.30;;;16.87;;
8594;SDS011;4335;48.860;9.198;2023-03-04T07:05:45;28.67;;;16.73;;
8594;SDS011;4335;48.860;9.198;2023-03-04T07:08:15;29.20;;;17.37;;
8594;SDS011;4335;48.860;9.198;2023-03-04T07:10:42;29.87;;;17.37;;
8594;SDS011;4335;48.860;9.198;2023-03-04T07:13:09;30.30;;;18.73;;
8594;SDS011;4335;48.860;9.198;2023-03-04T07:15:37;31.63;;;18.20;;
8594;SDS011;4335;48.860;9.198;2023-03-04T07:18:04;27.17;;;15.67;;
8594;SDS011;4335;48.860;9.198;2023-03-04T07:20:43;31.90;;;17.77;;
8594;SDS011;4335;48.860;9.198;2023-03-04T07:23:14;29.77;;;16.93;;
8594;SDS011;4335;48.860;9.198;2023-03-04T07:25:42;29.17;;;15.90;;
8594;SDS011;4335;48.860;9.198;2023-03-04T07:28:09;33.60;;;17.90;;
8594;SDS011;4335;48.860;9.198;2023-03-04T07:30:42;33.17;;;16.90;;
8594;SDS011;4335;48.860;9.198;2023-03-04T07:33:10;31.53;;;17.20;;
8594;SDS011;4335;48.860;9.198;2023-03-04T07:35:38;31.20;;;18.80;;
8594;SDS011;4335;48.860;9.198;2023-03-04T07:38:07;29.07;;;17.27;;
8594;SDS011;4335;48.860;9.198;2023-03-04T07:40:35;26.23;;;16.37;;
8594;SDS011;4335;48.860;9.198;2023-03-04T07:43:02;28.87;;;16.07;;
8594;SDS011;4335;48.860;9.198;2023-03-04T07:45:30;26.27;;;15.03;;
8594;SDS011;4335;48.860;9.198;2023-03-04T07:47:57;30.37;;;18.23;;
8594;SDS011;4335;48.860;9.198;2023-03-04T07:50:25;27.23;;;15.80;;
8594;SDS011;4335;48.860;9.198;2023-03-04T07:52:52;28.97;;;16.27;;
8594;SDS011;4335;48.860;9.198;2023-03-04T07:55:21;28.27;;;15.57;;
8594;SDS011;4335;48.860;9.198;2023-03-04T07:57:50;25.20;;;15.33;;
8594;SDS011;4335;48.860;9.198;2023-03-04T08:00:18;28.50;;;14.37;;
8594;SDS011;4335;48.860;9.198;2023-03-04T08:02:46;28.40;;;15.87;;
8594;SDS011;4335;48.860;9.198;2023-03-04T08:05:16;26.57;;;15.30;;
8594;SDS011;4335;48.860;9.198;2023-03-04T08:07:43;25.00;;;17.07;;
8594;SDS011;4335;48.860;9.198;2023-03-04T08:10:11;25.47;;;15.63;;
8594;SDS011;4335;48.860;9.198;2023-03-04T08:12:40;26.97;;;15.83;;
8594;SDS011;4335;48.860;9.198;2023-03-04T08:15:10;29.43;;;16.83;;
8594;SDS011;4335;48.860;9.198;2023-03-04T08:17:38;25.10;;;16.07;;
8594;SDS011;4335;48.860;9.198;2023-03-04T08:20:14;31.43;;;17.77;;
8594;SDS011;4335;48.860;9.198;2023-03-04T08:22:42;24.97;;;15.80;;
8594;SDS011;4335;48.860;9.198;2023-03-04T08:25:09;27.87;;;15.23;;
8594;SDS011;4335;48.860;9.198;2023-03-04T08:27:37;22.47;;;14.80;;
8594;SDS011;4335;48.860;9.198;2023-03-04T08:30:09;27.23;;;16.10;;
8594;SDS011;4335;48.860;9.198;2023-03-04T08:32:37;26.17;;;14.53;;
8594;SDS011;4335;48.860;9.198;2023-03-04T08:35:10;23.20;;;13.80;;
8594;SDS011;4335;48.860;9.198;2023-03-04T08:37:37;30.67;;;15.53;;
8594;SDS011;4335;48.860;9.198;2023-03-04T08:40:05;23.73;;;14.93;;
8594;SDS011;4335;48.860;9.198;2023-03-04T08:42:33;25.80;;;14.93;;
8594;SDS011;4335;48.860;9.198;2023-03-04T08:45:00;23.23;;;14.03;;
8594;SDS011;4335;48.860;9.198;2023-03-04T08:47:33;25.70;;;14.63;;
8594;SDS011;4335;48.860;9.198;2023-03-04T08:50:13;23.97;;;15.67;;
8594;SDS011;4335;48.860;9.198;2023-03-04T08:52:44;24.33;;;15.10;;
8594;SDS011;4335;48.860;9.198;2023-03-04T08:55:11;24.30;;;15.13;;
8594;SDS011;4335;48.860;9.198;2023-03-04T08:57:39;22.53;;;14.70;;
8594;SDS011;4335;48.860;9.198;2023-03-04T09:00:08;26.50;;;16.13;;
8594;SDS011;4335;48.860;9.198;2023-03-04T09:02:37;26.23;;;15.00;;
8594;SDS011;4335;48.860;9.198;2023-03-04T09:05:05;27.67;;;15.53;;
8594;SDS011;4335;48.860;9.198;2023-03-04T09:07:33;24.63;;;15.73;;
8594;SDS011;4335;48.860;9.198;2023-03-04T09:10:00;21.53;;;14.80;;
8594;SDS011;4335;48.860;9.198;2023-03-04T09:12:31;24.27;;;14.90;;
8594;SDS011;4335;48.860;9.198;2023-03-04T09:15:01;23.43;;;15.97;;
8594;SDS011;4335;48.860;9.198;2023-03-04T09:17:31;21.37;;;13.37;;
8594;SDS011;4335;48.860;9.198;2023-03-04T09:20:05;26.00;;;15.73;;
8594;SDS011;4335;48.860;9.198;2023-03-04T09:22:34;22.50;;;14.70;;
8594;SDS011;4335;48.860;9.198;2023-03-04T09:25:02;23.57;;;13.60;;
8594;SDS011;4335;48.860;9.198;2023-03-04T09:27:30;25.70;;;14.30;;
8594;SDS011;4335;48.860;9.198;2023-03-04T09:29:57;22.77;;;14.23;;
8594;SDS011;4335;48.860;9.198;2023-03-04T09:32:25;27.03;;;14.93;;
8594;SDS011;4335;48.860;9.198;2023-03-04T09:34:54;24.77;;;15.07;;
8594;SDS011;4335;48.860;9.198;2023-03-04T09:37:30;26.90;;;15.33;;
8594;SDS011;4335;48.860;9.198;2023-03-04T09:39:58;20.73;;;14.20;;
8594;SDS011;4335;48.860;9.198;2023-03-04T09:42:35;20.97;;;14.07;;
8594;SDS011;4335;48.860;9.198;2023-03-04T09:45:12;20.27;;;13.20;;
8594;SDS011;4335;48.860;9.198;2023-03-04T09:47:44;23.00;;;14.30;;
8594;SDS011;4335;48.860;9.198;2023-03-04T09:50:14;21.23;;;14.13;;
8594;SDS011;4335;48.860;9.198;2023-03-04T09:52:48;22.67;;;13.93;;
8594;SDS011;4335;48.860;9.198;2023-03-04T09:55:30;21.93;;;13.93;;
8594;SDS011;4335;48.860;9.198;2023-03-04T09:58:06;20.57;;;13.37;;
8594;SDS011;4335;48.860;9.198;2023-03-04T10:00:42;20.40;;;13.17;;
8594;SDS011;4335;48.860;9.198;2023-03-04T10:03:13;19.97;;;13.57;;
8594;SDS011;4335;48.860;9.198;2023-03-04T10:05:48;21.83;;;13.60;;
8594;SDS011;4335;48.860;9.198;2023-03-04T10:08:28;20.83;;;13.73;;
8594;SDS011;4335;48.860;9.198;2023-03-04T10:11:04;20.50;;;13.57;;
8594;SDS011;4335;48.860;9.198;2023-03-04T10:13:39;20.27;;;14.37;;
8594;SDS011;4335;48.860;9.198;2023-03-04T10:16:18;20.03;;;13.27;;
8594;SDS011;4335;48.860;9.198;2023-03-04T10:18:53;21.23;;;14.33;;
8594;SDS011;4335;48.860;9.198;2023-03-04T10:21:29;22.63;;;14.93;;
8594;SDS011;4335;48.860;9.198;2023-03-04T10:24:00;17.17;;;13.53;;
8594;SDS011;4335;48.860;9.198;2023-03-04T10:26:37;24.97;;;14.43;;
8594;SDS011;4335;48.860;9.198;2023-03-04T10:29:08;24.40;;;14.37;;
8594;SDS011;4335;48.860;9.198;2023-03-04T10:31:44;23.77;;;15.10;;
8594;SDS011;4335;48.860;9.198;2023-03-04T10:34:16;22.53;;;14.30;;
8594;SDS011;4335;48.860;9.198;2023-03-04T10:36:52;21.00;;;15.40;;
8594;SDS011;4335;48.860;9.198;2023-03-04T10:39:24;22.83;;;14.80;;
8594;SDS011;4335;48.860;9.198;2023-03-04T10:42:00;21.73;;;15.43;;
8594;SDS011;4335;48.860;9.198;2023-03-04T10:44:29;22.97;;;15.40;;
8594;SDS011;4335;48.860;9.198;2023-03-04T10:47:03;23.37;;;16.33;;
8594;SDS011;4335;48.860;9.198;2023-03-04T10:49:49;25.77;;;16.70;;
8594;SDS011;4335;48.860;9.198;2023-03-04T10:52:21;21.83;;;15.83;;
8594;SDS011;4335;48.860;9.198;2023-03-04T10:54:54;23.13;;;15.63;;
8594;SDS011;4335;48.860;9.198;2023-03-04T10:57:24;23.13;;;16.20;;
8594;SDS011;4335;48.860;9.198;2023-03-04T10:59:58;21.30;;;15.00;;
8594;SDS011;4335;48.860;9.198;2023-03-04T11:02:27;24.70;;;17.27;;
8594;SDS011;4335;48.860;9.198;2023-03-04T11:05:10;26.70;;;17.93;;
8594;SDS011;4335;48.860;9.198;2023-03-04T11:07:45;25.43;;;18.03;;
8594;SDS011;4335;48.860;9.198;2023-03-04T11:10:16;24.10;;;17.07;;
8594;SDS011;4335;48.860;9.198;2023-03-04T11:12:48;27.20;;;18.67;;
8594;SDS011;4335;48.860;9.198;2023-03-04T11:15:17;25.97;;;18.17;;
8594;SDS011;4335;48.860;9.198;2023-03-04T11:17:49;27.47;;;18.37;;
8594;SDS011;4335;48.860;9.198;2023-03-04T11:20:24;25.77;;;18.10;;
8594;SDS011;4335;48.860;9.198;2023-03-04T11:22:58;27.73;;;18.20;;
8594;SDS011;4335;48.860;9.198;2023-03-04T11:25:31;28.83;;;17.60;;
8594;SDS011;4335;48.860;9.198;2023-03-04T11:28:01;28.40;;;18.80;;
8594;SDS011;4335;48.860;9.198;2023-03-04T11:30:33;27.67;;;18.90;;
8594;SDS011;4335;48.860;9.198;2023-03-04T11:33:08;32.50;;;19.57;;
8594;SDS011;4335;48.860;9.198;2023-03-04T11:35:50;30.57;;;18.60;;
8594;SDS011;4335;48.860;9.198;2023-03-04T11:38:34;26.40;;;17.83;;
8594;SDS011;4335;48.860;9.198;2023-03-04T11:41:05;29.20;;;19.67;;
8594;SDS011;4335;48.860;9.198;2023-03-04T11:43:38;26.67;;;18.40;;
8594;SDS011;4335;48.860;9.198;2023-03-04T11:49:19;31.00;;;20.37;;
8594;SDS011;4335;48.860;9.198;2023-03-04T11:52:00;30.00;;;19.97;;
8594;SDS011;4335;48.860;9.198;2023-03-04T11:54:38;29.93;;;19.00;;
8594;SDS011;4335;48.860;9.198;2023-03-04T11:57:20;29.57;;;19.67;;
8594;SDS011;4335;48.860;9.198;2023-03-04T12:00:01;31.07;;;20.00;;
8594;SDS011;4335;48.860;9.198;2023-03-04T12:02:47;35.27;;;21.47;;
8594;SDS011;4335;48.860;9.198;2023-03-04T12:05:36;34.20;;;21.57;;
8594;SDS011;4335;48.860;9.198;2023-03-04T12:08:23;31.57;;;20.63;;
8594;SDS011;4335;48.860;9.198;2023-03-04T12:11:20;38.20;;;21.57;;
8594;SDS011;4335;48.860;9.198;2023-03-04T12:14:07;33.53;;;21.50;;
8594;SDS011;4335;48.860;9.198;2023-03-04T12:16:55;34.30;;;20.23;;
8594;SDS011;4335;48.860;9.198;2023-03-04T12:20:00;34.50;;;21.53;;
8594;SDS011;4335;48.860;9.198;2023-03-04T12:22:50;34.83;;;22.27;;
8594;SDS011;4335;48.860;9.198;2023-03-04T12:25:35;33.80;;;20.50;;
8594;SDS011;4335;48.860;9.198;2023-03-04T12:28:19;30.90;;;21.37;;
8594;SDS011;4335;48.860;9.198;2023-03-04T12:31:12;31.90;;;21.20;;
8594;SDS011;4335;48.860;9.198;2023-03-04T12:33:50;38.30;;;22.23;;
8594;SDS011;4335;48.860;9.198;2023-03-04T12:36:34;35.33;;;21.63;;
8594;SDS011;4335;48.860;9.198;2023-03-04T12:39:17;33.63;;;21.13;;
8594;SDS011;4335;48.860;9.198;2023-03-04T12:41:54;35.00;;;20.93;;
8594;SDS011;4335;48.860;9.198;2023-03-04T12:44:34;36.97;;;23.27;;
8594;SDS011;4335;48.860;9.198;2023-03-04T12:47:14;36.50;;;23.47;;
8594;SDS011;4335;48.860;9.198;2023-03-04T12:50:00;36.03;;;20.57;;
8594;SDS011;4335;48.860;9.198;2023-03-04T12:52:41;36.60;;;22.23;;
8594;SDS011;4335;48.860;9.198;2023-03-04T12:55:27;38.30;;;22.50;;
8594;SDS011;4335;48.860;9.198;2023-03-04T12:58:00;31.53;;;19.40;;
8594;SDS011;4335;48.860;9.198;2023-03-04T13:00:31;33.83;;;20.57;;
8594;SDS011;4335;48.860;9.198;2023-03-04T13:03:09;33.63;;;20.90;;
8594;SDS011;4335;48.860;9.198;2023-03-04T13:08:34;35.43;;;20.27;;
8594;SDS011;4335;48.860;9.198;2023-03-04T13:14:21;28.70;;;18.97;;
8594;SDS011;4335;48.860;9.198;2023-03-04T13:16:59;30.97;;;18.93;;
8594;SDS011;4335;48.860;9.198;2023-03-04T13:19:45;28.80;;;18.30;;
8594;SDS011;4335;48.860;9.198;2023-03-04T13:22:27;27.57;;;18.47;;
8594;SDS011;4335;48.860;9.198;2023-03-04T13:24:56;23.50;;;16.77;;
8594;SDS011;4335;48.860;9.198;2023-03-04T13:39:25;30.47;;;15.83;;
8594;SDS011;4335;48.860;9.198;2023-03-04T13:41:56;22.00;;;14.80;;
8594;SDS011;4335;48.860;9.198;2023-03-04T13:47:27;21.10;;;14.77;;
8594;SDS011;4335;48.860;9.198;2023-03-04T13:56:00;21.00;;;13.40;;
8594;SDS011;4335;48.860;9.198;2023-03-04T13:58:39;22.50;;;14.07;;
8594;SDS011;4335;48.860;9.198;2023-03-04T14:01:17;21.63;;;14.80;;
8594;SDS011;4335;48.860;9.198;2023-03-04T14:03:51;21.27;;;14.33;;
8594;SDS011;4335;48.860;9.198;2023-03-04T14:06:20;25.57;;;15.67;;
8594;SDS011;4335;48.860;9.198;2023-03-04T14:08:50;26.43;;;15.63;;
8594;SDS011;4335;48.860;9.198;2023-03-04T14:11:22;26.67;;;16.07;;
8594;SDS011;4335;48.860;9.198;2023-03-04T14:13:53;24.67;;;14.70;;
8594;SDS011;4335;48.860;9.198;2023-03-04T14:16:26;25.63;;;15.30;;
8594;SDS011;4335;48.860;9.198;2023-03-04T14:19:01;23.73;;;15.53;;
8594;SDS011;4335;48.860;9.198;2023-03-04T14:21:30;25.27;;;17.00;;
8594;SDS011;4335;48.860;9.198;2023-03-04T14:24:06;29.93;;;17.73;;
8594;SDS011;4335;48.860;9.198;2023-03-04T14:26:38;25.50;;;16.00;;
8594;SDS011;4335;48.860;9.198;2023-03-04T14:29:18;25.63;;;16.33;;
8594;SDS011;4335;48.860;9.198;2023-03-04T14:31:49;25.53;;;16.50;;
8594;SDS011;4335;48.860;9.198;2023-03-04T14:34:19;25.90;;;16.23;;
8594;SDS011;4335;48.860;9.198;2023-03-04T14:37:01;23.10;;;15.90;;
8594;SDS011;4335;48.860;9.198;2023-03-04T14:39:31;21.57;;;14.40;;
8594;SDS011;4335;48.860;9.198;2023-03-04T14:42:07;25.53;;;15.80;;
8594;SDS011;4335;48.860;9.198;2023-03-04T14:44:39;26.67;;;15.13;;
8594;SDS011;4335;48.860;9.198;2023-03-04T14:47:12;25.40;;;16.10;;
8594;SDS011;4335;48.860;9.198;2023-03-04T14:49:47;25.17;;;15.03;;
8594;SDS011;4335;48.860;9.198;2023-03-04T14:55:31;26.97;;;14.80;;
8594;SDS011;4335;48.860;9.198;2023-03-04T14:58:05;21.83;;;13.40;;
8594;SDS011;4335;48.860;9.198;2023-03-04T15:00:36;29.97;;;14.97;;
8594;SDS011;4335;48.860;9.198;2023-03-04T15:03:16;28.10;;;13.63;;
8594;SDS011;4335;48.860;9.198;2023-03-04T15:05:46;29.23;;;15.53;;
8594;SDS011;4335;48.860;9.198;2023-03-04T15:08:17;27.87;;;14.23;;
8594;SDS011;4335;48.860;9.198;2023-03-04T15:10:54;24.97;;;14.87;;
8594;SDS011;4335;48.860;9.198;2023-03-04T15:13:38;27.20;;;16.83;;
8594;SDS011;4335;48.860;9.198;2023-03-04T15:16:06;23.57;;;14.90;;
8594;SDS011;4335;48.860;9.198;2023-03-04T15:18:35;28.70;;;15.97;;
8594;SDS011;4335;48.860;9.198;2023-03-04T15:21:03;27.33;;;16.20;;
8594;SDS011;4335;48.860;9.198;2023-03-04T15:23:51;28.30;;;16.60;;
8594;SDS011;4335;48.860;9.198;2023-03-04T15:26:23;30.73;;;16.03;;
8594;SDS011;4335;48.860;9.198;2023-03-04T15:28:51;27.10;;;15.50;;
8594;SDS011;4335;48.860;9.198;2023-03-04T15:31:19;30.70;;;17.00;;
8594;SDS011;4335;48.860;9.198;2023-03-04T15:33:51;24.77;;;16.47;;
8594;SDS011;4335;48.860;9.198;2023-03-04T15:36:19;22.40;;;14.97;;
8594;SDS011;4335;48.860;9.198;2023-03-04T15:38:48;20.97;;;15.47;;
8594;SDS011;4335;48.860;9.198;2023-03-04T15:41:19;27.87;;;16.10;;
8594;SDS011;4335;48.860;9.198;2023-03-04T15:43:53;25.60;;;15.47;;
8594;SDS011;4335;48.860;9.198;2023-03-04T15:46:24;21.93;;;15.30;;
8594;SDS011;4335;48.860;9.198;2023-03-04T15:48:51;27.80;;;15.10;;
8594;SDS011;4335;48.860;9.198;2023-03-04T15:51:22;25.33;;;15.10;;